createdAt,value
2023-04-15T00:01:20.339Z,8.13
2023-04-15T00:03:50.862Z,8.13
2023-04-15T00:06:17.727Z,8.38
2023-04-15T00:08:44.528Z,7.50
2023-04-15T00:11:11.432Z,7.60
2023-04-15T00:13:38.821Z,8.35
2023-04-15T00:16:07.744Z,7.55
2023-04-15T00:18:35.929Z,7.85
2023-04-15T00:21:03.206Z,8.73
2023-04-15T00:23:30.126Z,8.05
2023-04-15T00:25:57.518Z,8.20
2023-04-15T00:28:24.431Z,8.27
2023-04-15T00:30:51.622Z,8.43
2023-04-15T00:33:18.543Z,7.82
2023-04-15T00:35:45.400Z,7.57
2023-04-15T00:38:12.684Z,8.02
2023-04-15T00:40:40.115Z,7.80
2023-04-15T00:43:07.326Z,8.40
2023-04-15T00:45:34.501Z,8.30
2023-04-15T00:48:01.707Z,8.02
2023-04-15T00:50:28.577Z,7.97
2023-04-15T00:52:55.379Z,8.18
2023-04-15T00:55:22.259Z,8.20
2023-04-15T00:57:49.037Z,9.30
2023-04-15T01:00:16.820Z,8.77
2023-04-15T01:02:43.879Z,8.25
2023-04-15T01:05:10.920Z,7.53
2023-04-15T01:07:38.129Z,7.63
2023-04-15T01:10:05.609Z,7.18
2023-04-15T01:12:34.621Z,8.00
2023-04-15T01:15:02.685Z,7.07
2023-04-15T01:17:30.468Z,7.50
2023-04-15T01:20:00.337Z,7.35
2023-04-15T01:22:28.059Z,7.13
2023-04-15T01:25:02.632Z,7.72
2023-04-15T01:27:29.675Z,7.45
2023-04-15T01:29:56.402Z,7.88
2023-04-15T01:32:24.125Z,7.25
2023-04-15T01:34:51.156Z,7.15
2023-04-15T01:37:18.073Z,6.88
2023-04-15T01:39:44.947Z,8.02
2023-04-15T01:42:11.960Z,7.55
2023-04-15T01:44:38.776Z,8.15
2023-04-15T01:47:05.963Z,8.18
2023-04-15T01:49:33.029Z,8.32
2023-04-15T01:51:59.853Z,8.43
2023-04-15T01:54:27.845Z,8.40
2023-04-15T01:56:54.638Z,8.00
2023-04-15T01:59:21.924Z,7.80
2023-04-15T02:01:48.678Z,7.15
2023-04-15T02:04:17.562Z,7.90
2023-04-15T02:06:44.916Z,8.25
2023-04-15T02:09:11.773Z,8.20
2023-04-15T02:11:39.464Z,7.97
2023-04-15T02:14:06.625Z,8.70
2023-04-15T02:16:34.166Z,8.40
2023-04-15T02:19:01.625Z,7.43
2023-04-15T02:21:28.720Z,7.10
2023-04-15T02:23:56.233Z,7.93
2023-04-15T02:26:23.192Z,8.48
2023-04-15T02:28:51.597Z,9.13
2023-04-15T02:31:18.786Z,8.25
2023-04-15T02:33:45.932Z,7.75
2023-04-15T02:36:12.723Z,8.57
2023-04-15T02:38:42.621Z,7.90
2023-04-15T02:41:10.676Z,7.85
2023-04-15T02:43:38.234Z,8.20
2023-04-15T02:46:05.126Z,7.85
2023-04-15T02:48:32.131Z,7.65
2023-04-15T02:51:12.808Z,7.22
2023-04-15T02:53:39.600Z,7.20
2023-04-15T02:56:06.903Z,7.57
2023-04-15T02:58:35.055Z,8.30
2023-04-15T03:01:02.083Z,7.47
2023-04-15T03:03:29.017Z,8.38
2023-04-15T03:05:56.038Z,7.45
2023-04-15T03:08:22.845Z,8.10
2023-04-15T03:10:49.805Z,7.70
2023-04-15T03:13:16.744Z,7.95
2023-04-15T03:15:43.480Z,7.72
2023-04-15T03:18:10.295Z,7.93
2023-04-15T03:20:37.528Z,7.38
2023-04-15T03:23:04.488Z,7.30
2023-04-15T03:25:31.357Z,7.38
2023-04-15T03:27:58.711Z,6.95
2023-04-15T03:30:25.482Z,6.38
2023-04-15T03:32:52.273Z,7.40
2023-04-15T03:35:19.024Z,6.65
2023-04-15T03:37:45.907Z,7.25
2023-04-15T03:40:13.194Z,6.63
2023-04-15T03:42:39.943Z,6.78
2023-04-15T03:45:07.941Z,6.63
2023-04-15T03:47:34.901Z,7.00
2023-04-15T03:50:01.920Z,6.93
2023-04-15T03:52:28.924Z,7.05
2023-04-15T03:54:56.267Z,6.90
2023-04-15T03:57:23.041Z,6.53
2023-04-15T03:59:49.853Z,6.70
2023-04-15T04:02:16.673Z,6.78
2023-04-15T04:04:44.068Z,6.80
2023-04-15T04:07:18.612Z,6.60
2023-04-15T04:09:47.149Z,6.43
2023-04-15T04:12:14.457Z,6.45
2023-04-15T04:14:41.379Z,7.10
2023-04-15T04:17:08.268Z,7.03
2023-04-15T04:19:35.534Z,7.03
2023-04-15T04:22:02.435Z,6.70
2023-04-15T04:24:29.211Z,7.43
2023-04-15T04:26:57.491Z,7.28
2023-04-15T04:29:24.453Z,6.82
2023-04-15T04:31:51.286Z,7.28
2023-04-15T04:34:18.417Z,7.28
2023-04-15T04:36:45.147Z,6.90
2023-04-15T04:39:11.887Z,8.73
2023-04-15T04:41:38.702Z,7.10
2023-04-15T04:44:05.527Z,6.68
2023-04-15T04:46:32.264Z,6.97
2023-04-15T04:48:59.104Z,6.60
2023-04-15T04:51:26.565Z,7.22
2023-04-15T04:53:54.135Z,7.07
2023-04-15T04:56:21.274Z,6.85
2023-04-15T04:58:48.220Z,7.20
2023-04-15T05:01:15.259Z,6.93
2023-04-15T05:03:42.193Z,6.68
2023-04-15T05:06:09.155Z,6.55
2023-04-15T05:08:37.336Z,6.70
2023-04-15T05:11:05.415Z,6.32
2023-04-15T05:13:32.217Z,6.38
2023-04-15T05:15:59.103Z,6.25
2023-04-15T05:18:26.139Z,6.15
2023-04-15T05:20:53.038Z,6.75
2023-04-15T05:23:19.816Z,6.22
2023-04-15T05:25:46.568Z,6.30
2023-04-15T05:28:13.293Z,6.93
2023-04-15T05:30:40.733Z,6.65
2023-04-15T05:33:07.545Z,6.20
2023-04-15T05:35:34.305Z,6.63
2023-04-15T05:38:01.394Z,5.90
2023-04-15T05:40:28.462Z,5.78
2023-04-15T05:42:55.727Z,6.40
2023-04-15T05:45:22.836Z,5.78
2023-04-15T05:47:54.503Z,6.22
2023-04-15T05:50:21.587Z,5.97
2023-04-15T05:52:48.435Z,5.43
2023-04-15T05:55:15.228Z,5.70
2023-04-15T05:57:42.003Z,6.00
2023-04-15T06:00:09.714Z,5.72
2023-04-15T06:02:36.844Z,6.05
2023-04-15T06:05:04.266Z,5.40
2023-04-15T06:07:31.213Z,5.70
2023-04-15T06:09:57.988Z,5.78
2023-04-15T06:12:24.745Z,5.60
2023-04-15T06:14:51.551Z,4.95
2023-04-15T06:17:19.568Z,5.75
2023-04-15T06:19:47.385Z,5.65
2023-04-15T06:22:14.247Z,5.57
2023-04-15T06:24:41.373Z,5.38
2023-04-15T06:27:08.302Z,5.18
2023-04-15T06:29:35.084Z,5.10
2023-04-15T06:32:01.864Z,5.82
2023-04-15T06:34:28.700Z,5.20
2023-04-15T06:36:55.649Z,4.95
2023-04-15T06:39:22.403Z,5.15
2023-04-15T06:41:49.281Z,5.65
2023-04-15T06:44:16.488Z,5.05
2023-04-15T06:46:43.204Z,5.15
2023-04-15T06:49:09.982Z,4.97
2023-04-15T06:51:36.956Z,4.75
2023-04-15T06:54:06.255Z,4.93
2023-04-15T06:56:33.780Z,5.13
2023-04-15T06:59:01.185Z,4.97
2023-04-15T07:01:28.635Z,6.38
2023-04-15T07:03:55.541Z,5.00
2023-04-15T07:06:22.487Z,5.07
2023-04-15T07:08:49.237Z,5.03
2023-04-15T07:11:16.056Z,4.55
2023-04-15T07:13:42.751Z,4.75
2023-04-15T07:16:09.699Z,5.10
2023-04-15T07:18:36.492Z,5.10
2023-04-15T07:21:03.436Z,4.88
2023-04-15T07:23:30.356Z,4.75
2023-04-15T07:25:57.694Z,4.65
2023-04-15T07:28:24.542Z,4.25
2023-04-15T07:30:54.435Z,5.03
2023-04-15T07:33:21.785Z,4.50
2023-04-15T07:35:48.544Z,4.93
2023-04-15T07:38:15.267Z,5.25
2023-04-15T07:40:42.660Z,5.05
2023-04-15T07:43:10.255Z,5.50
2023-04-15T07:45:37.051Z,5.47
2023-04-15T07:48:04.121Z,5.55
2023-04-15T07:50:31.490Z,5.35
2023-04-15T07:52:58.359Z,5.20
2023-04-15T07:55:26.165Z,5.60
2023-04-15T07:57:54.017Z,5.50
2023-04-15T08:00:21.015Z,5.93
2023-04-15T08:02:48.639Z,5.45
2023-04-15T08:05:16.269Z,6.30
2023-04-15T08:07:43.125Z,5.70
2023-04-15T08:10:10.400Z,5.68
2023-04-15T08:12:37.440Z,5.93
2023-04-15T08:15:04.648Z,6.50
2023-04-15T08:17:31.452Z,5.57
2023-04-15T08:19:58.241Z,5.50
2023-04-15T08:22:25.217Z,5.85
2023-04-15T08:24:52.279Z,6.10
2023-04-15T08:27:19.184Z,5.25
2023-04-15T08:29:46.021Z,4.63
2023-04-15T08:32:13.121Z,4.50
2023-04-15T08:34:40.030Z,4.95
2023-04-15T08:37:07.292Z,4.85
2023-04-15T08:39:34.060Z,4.53
2023-04-15T08:42:07.527Z,5.05
2023-04-15T08:44:35.766Z,4.60
2023-04-15T08:47:03.524Z,4.55
2023-04-15T08:49:30.974Z,4.53
2023-04-15T08:52:01.749Z,4.70
2023-04-15T08:54:28.837Z,4.30
2023-04-15T08:56:59.212Z,4.25
2023-04-15T08:59:26.903Z,4.82
2023-04-15T09:01:55.582Z,4.15
2023-04-15T09:04:22.516Z,4.45
2023-04-15T09:06:49.273Z,3.90
2023-04-15T09:09:16.090Z,4.30
2023-04-15T09:11:43.426Z,4.35
2023-04-15T09:14:10.181Z,4.43
2023-04-15T09:16:58.975Z,4.28
2023-04-15T09:19:25.980Z,3.53
2023-04-15T09:21:58.015Z,3.90
2023-04-15T09:24:27.367Z,3.55
2023-04-15T09:26:56.241Z,3.85
2023-04-15T09:29:26.928Z,3.40
2023-04-15T09:31:53.966Z,2.88
2023-04-15T09:34:21.869Z,3.20
2023-04-15T09:36:50.949Z,3.13
2023-04-15T09:39:18.409Z,3.42
2023-04-15T09:41:45.514Z,3.60
2023-04-15T09:44:41.428Z,3.60
2023-04-15T09:47:08.315Z,3.30
2023-04-15T09:49:35.231Z,3.08
2023-04-15T09:52:06.142Z,3.25
2023-04-15T09:54:37.659Z,3.08
2023-04-15T09:57:10.535Z,3.00
2023-04-15T09:59:37.478Z,3.05
2023-04-15T10:02:06.797Z,2.50
2023-04-15T10:04:39.751Z,2.97
2023-04-15T10:07:08.673Z,2.35
2023-04-15T10:09:39.668Z,2.72
2023-04-15T10:12:06.615Z,2.80
2023-04-15T10:14:36.057Z,2.88
2023-04-15T10:17:05.805Z,2.70
2023-04-15T10:19:34.593Z,2.17
2023-04-15T10:22:01.821Z,2.10
2023-04-15T10:24:31.460Z,2.20
2023-04-15T10:26:59.747Z,2.30
2023-04-15T10:29:29.680Z,2.30
2023-04-15T10:31:57.251Z,2.45
2023-04-15T10:34:25.053Z,2.13
2023-04-15T10:36:52.368Z,1.90
2023-04-15T10:39:37.843Z,2.28
2023-04-15T10:42:11.135Z,2.47
2023-04-15T10:44:39.408Z,2.20
2023-04-15T10:47:15.812Z,2.20
2023-04-15T10:49:51.081Z,2.22
2023-04-15T10:52:23.134Z,1.90
2023-04-15T10:54:50.119Z,2.08
2023-04-15T10:57:23.664Z,2.08
2023-04-15T11:00:05.036Z,1.67
2023-04-15T11:03:00.277Z,1.63
2023-04-15T11:05:42.347Z,1.75
2023-04-15T11:08:13.881Z,1.50
2023-04-15T11:10:41.455Z,1.08
2023-04-15T11:13:11.190Z,1.30
2023-04-15T11:15:42.940Z,1.25
2023-04-15T11:18:15.338Z,1.40
2023-04-15T11:20:48.327Z,1.48
2023-04-15T11:23:16.225Z,1.60
2023-04-15T11:25:44.226Z,1.40
2023-04-15T11:28:12.561Z,1.60
2023-04-15T11:30:40.414Z,1.50
2023-04-15T11:33:09.427Z,1.80
2023-04-15T11:35:36.425Z,2.00
2023-04-15T11:38:04.464Z,1.73
2023-04-15T11:40:33.700Z,1.75
2023-04-15T11:43:10.794Z,1.90
2023-04-15T11:45:38.900Z,1.70
2023-04-15T11:48:12.549Z,1.85
2023-04-15T11:50:41.459Z,1.85
2023-04-15T11:53:10.350Z,1.70
2023-04-15T11:55:51.312Z,1.63
2023-04-15T11:58:20.707Z,1.95
2023-04-15T12:00:54.344Z,1.90
2023-04-15T12:03:32.160Z,2.10
2023-04-15T12:06:12.585Z,1.98
2023-04-15T12:09:06.782Z,2.13
2023-04-15T12:11:34.943Z,2.25
2023-04-15T12:14:09.885Z,2.35
2023-04-15T12:16:48.170Z,2.17
2023-04-15T12:19:45.580Z,2.20
2023-04-15T12:22:15.567Z,2.33
2023-04-15T12:24:48.921Z,1.70
2023-04-15T12:27:17.250Z,2.40
2023-04-15T12:29:44.491Z,2.30
2023-04-15T12:32:16.076Z,2.38
2023-04-15T12:34:45.139Z,2.10
2023-04-15T12:37:16.219Z,2.33
2023-04-15T12:39:44.834Z,2.45
2023-04-15T12:42:12.181Z,2.58
2023-04-15T12:44:39.947Z,2.10
2023-04-15T12:47:08.285Z,2.00
2023-04-15T12:49:35.365Z,2.55
2023-04-15T12:52:03.620Z,2.92
2023-04-15T12:54:31.758Z,2.75
2023-04-15T12:56:59.708Z,2.58
2023-04-15T12:59:26.981Z,2.58
2023-04-15T13:01:54.675Z,2.42
2023-04-15T13:04:22.243Z,2.20
2023-04-15T13:06:49.447Z,2.20
2023-04-15T13:09:16.281Z,2.28
2023-04-15T13:11:43.377Z,2.10
2023-04-15T13:14:13.365Z,2.38
2023-04-15T13:16:41.066Z,2.10
2023-04-15T13:19:07.973Z,2.28
2023-04-15T13:21:36.224Z,2.25
2023-04-15T13:24:04.261Z,2.28
2023-04-15T13:26:32.145Z,2.35
2023-04-15T13:29:00.135Z,2.25
2023-04-15T13:31:27.598Z,2.20
2023-04-15T13:33:54.917Z,2.22
2023-04-15T13:36:21.714Z,1.90
2023-04-15T13:38:50.996Z,1.95
2023-04-15T13:41:18.244Z,1.85
2023-04-15T13:43:44.992Z,1.60
2023-04-15T13:46:11.889Z,1.48
2023-04-15T13:48:38.777Z,1.60
2023-04-15T13:51:05.805Z,1.58
2023-04-15T13:53:38.890Z,1.80
2023-04-15T13:56:10.127Z,1.80
2023-04-15T13:58:38.112Z,1.90
2023-04-15T14:01:08.937Z,1.75
2023-04-15T14:03:37.017Z,1.90
2023-04-15T14:06:05.526Z,1.90
2023-04-15T14:08:32.440Z,2.13
2023-04-15T14:10:59.413Z,2.00
2023-04-15T14:13:26.415Z,2.03
2023-04-15T14:15:53.337Z,1.90
2023-04-15T14:18:20.521Z,1.92
2023-04-15T14:20:47.582Z,2.05
2023-04-15T14:23:14.348Z,1.70
2023-04-15T14:25:41.416Z,2.00
2023-04-15T14:28:08.522Z,2.00
2023-04-15T14:30:36.221Z,2.42
2023-04-15T14:33:04.157Z,2.05
2023-04-15T14:35:31.242Z,2.00
2023-04-15T14:37:58.108Z,2.10
2023-04-15T14:40:24.850Z,1.70
2023-04-15T14:42:51.695Z,2.80
2023-04-15T14:45:18.634Z,2.22
2023-04-15T14:47:45.635Z,2.03
2023-04-15T14:50:13.007Z,2.00
2023-04-15T14:52:40.027Z,2.30
2023-04-15T14:55:08.904Z,2.03
2023-04-15T14:57:36.272Z,2.55
2023-04-15T15:00:04.614Z,2.50
2023-04-15T15:02:39.391Z,3.03
2023-04-15T15:05:08.016Z,2.80
2023-04-15T15:07:37.407Z,2.30
2023-04-15T15:10:04.854Z,2.45
2023-04-15T15:12:32.874Z,2.20
2023-04-15T15:15:00.468Z,2.55
2023-04-15T15:17:28.763Z,2.55
2023-04-15T15:19:55.795Z,2.40
2023-04-15T15:22:22.538Z,2.75
2023-04-15T15:24:49.324Z,2.38
2023-04-15T15:27:16.404Z,2.40
2023-04-15T15:29:43.501Z,2.83
2023-04-15T15:32:10.600Z,2.38
2023-04-15T15:34:37.717Z,1.95
2023-04-15T15:37:04.473Z,2.08
2023-04-15T15:39:32.716Z,2.45
2023-04-15T15:41:59.455Z,2.00
2023-04-15T15:44:26.554Z,2.28
2023-04-15T15:46:53.993Z,2.20
2023-04-15T15:49:21.125Z,2.70
2023-04-15T15:51:48.034Z,2.20
2023-04-15T15:54:14.837Z,2.40
2023-04-15T15:56:42.374Z,2.58
2023-04-15T15:59:09.143Z,2.63
2023-04-15T16:01:36.208Z,2.95
2023-04-15T16:04:03.062Z,2.58
2023-04-15T16:06:29.974Z,2.72
2023-04-15T16:08:56.720Z,2.63
2023-04-15T16:11:23.771Z,2.97
2023-04-15T16:13:51.262Z,2.95
2023-04-15T16:16:18.062Z,2.70
2023-04-15T16:18:44.892Z,3.10
2023-04-15T16:21:11.716Z,3.03
2023-04-15T16:23:38.574Z,3.40
2023-04-15T16:26:05.504Z,3.20
2023-04-15T16:28:32.413Z,2.88
2023-04-15T16:30:59.619Z,2.53
2023-04-15T16:33:26.807Z,2.70
2023-04-15T16:35:53.635Z,3.30
2023-04-15T16:38:20.725Z,3.22
2023-04-15T16:40:47.684Z,2.67
2023-04-15T16:43:14.396Z,3.08
2023-04-15T16:45:41.251Z,3.50
2023-04-15T16:48:08.005Z,7.07
2023-04-15T16:50:37.975Z,2.78
2023-04-15T16:53:04.765Z,2.95
2023-04-15T16:55:31.944Z,3.00
2023-04-15T16:58:02.246Z,2.70
2023-04-15T17:00:32.015Z,3.42
2023-04-15T17:03:00.976Z,3.13
2023-04-15T17:05:28.344Z,3.45
2023-04-15T17:07:55.753Z,4.20
2023-04-15T17:10:23.134Z,3.60
2023-04-15T17:12:52.373Z,3.35
2023-04-15T17:15:20.281Z,3.67
2023-04-15T17:17:47.126Z,4.15
2023-04-15T17:20:14.035Z,3.63
2023-04-15T17:22:40.916Z,2.97
2023-04-15T17:25:08.644Z,3.05
2023-04-15T17:27:36.247Z,3.25
2023-04-15T17:30:03.284Z,2.75
2023-04-15T17:32:34.634Z,2.90
2023-04-15T17:35:03.837Z,3.03
2023-04-15T17:37:30.727Z,3.00
2023-04-15T17:39:57.464Z,2.88
2023-04-15T17:42:24.270Z,3.08
2023-04-15T17:44:51.004Z,2.67
2023-04-15T17:47:17.874Z,3.25
2023-04-15T17:49:45.874Z,3.53
2023-04-15T17:52:12.843Z,3.08
2023-04-15T17:54:39.629Z,2.70
2023-04-15T17:57:06.564Z,2.90
2023-04-15T17:59:34.373Z,2.83
2023-04-15T18:02:01.293Z,2.95
2023-04-15T18:04:28.751Z,3.22
2023-04-15T18:06:55.543Z,2.92
2023-04-15T18:09:22.406Z,3.15
2023-04-15T18:11:49.378Z,4.60
2023-04-15T18:14:26.985Z,3.60
2023-04-15T18:17:01.332Z,3.53
2023-04-15T18:19:32.278Z,3.45
2023-04-15T18:22:00.741Z,3.13
2023-04-15T18:24:28.264Z,3.35
2023-04-15T18:26:55.048Z,3.78
2023-04-15T18:29:22.173Z,3.20
2023-04-15T18:31:49.097Z,2.92
2023-04-15T18:34:16.104Z,4.78
2023-04-15T18:36:43.084Z,3.05
2023-04-15T18:39:10.685Z,3.17
2023-04-15T18:41:37.560Z,3.22
2023-04-15T18:44:04.401Z,2.95
2023-04-15T18:46:31.460Z,3.67
2023-04-15T18:48:58.346Z,3.60
2023-04-15T18:51:25.326Z,3.00
2023-04-15T18:53:52.098Z,3.13
2023-04-15T18:56:18.961Z,3.72
2023-04-15T18:59:08.883Z,3.38
2023-04-15T19:01:32.739Z,3.10
2023-04-15T19:04:02.652Z,3.42
2023-04-15T19:06:29.606Z,3.15
2023-04-15T19:08:58.778Z,3.38
2023-04-15T19:11:26.528Z,3.33
2023-04-15T19:13:53.417Z,3.10
2023-04-15T19:16:20.507Z,3.38
2023-04-15T19:18:47.374Z,3.63
2023-04-15T19:21:14.328Z,3.30
2023-04-15T19:23:43.837Z,3.97
2023-04-15T19:26:12.027Z,3.10
2023-04-15T19:28:38.907Z,3.40
2023-04-15T19:31:05.967Z,3.38
2023-04-15T19:33:33.502Z,3.13
2023-04-15T19:36:05.569Z,3.40
2023-04-15T19:38:35.159Z,3.60
2023-04-15T19:41:02.170Z,3.22
2023-04-15T19:43:29.044Z,3.58
2023-04-15T19:45:56.297Z,3.90
2023-04-15T19:48:24.818Z,3.83
2023-04-15T19:50:51.969Z,3.15
2023-04-15T19:53:18.747Z,3.95
2023-04-15T19:55:46.229Z,4.13
2023-04-15T19:58:13.024Z,3.63
2023-04-15T20:00:39.799Z,3.25
2023-04-15T20:03:06.830Z,4.13
2023-04-15T20:05:33.663Z,3.70
2023-04-15T20:08:01.843Z,3.70
2023-04-15T20:10:28.663Z,3.67
2023-04-15T20:12:55.655Z,3.53
2023-04-15T20:15:24.255Z,4.05
2023-04-15T20:17:51.646Z,3.47
2023-04-15T20:20:18.839Z,4.43
2023-04-15T20:22:45.617Z,3.83
2023-04-15T20:25:12.653Z,3.97
2023-04-15T20:27:39.904Z,4.70
2023-04-15T20:30:07.770Z,4.85
2023-04-15T20:32:36.240Z,4.25
2023-04-15T20:35:05.302Z,3.80
2023-04-15T20:37:33.740Z,4.35
2023-04-15T20:40:01.127Z,4.18
2023-04-15T20:42:28.307Z,4.03
2023-04-15T20:44:55.046Z,4.40
2023-04-15T20:47:21.932Z,4.28
2023-04-15T20:49:48.767Z,4.28
2023-04-15T20:52:15.493Z,4.05
2023-04-15T20:54:42.269Z,5.00
2023-04-15T20:57:09.303Z,4.38
2023-04-15T20:59:36.255Z,4.57
2023-04-15T21:02:03.397Z,5.05
2023-04-15T21:04:30.296Z,4.68
2023-04-15T21:06:57.099Z,5.15
2023-04-15T21:09:25.052Z,4.95
2023-04-15T21:14:21.600Z,5.82
2023-04-15T21:16:48.567Z,5.10
2023-04-15T21:19:15.329Z,5.32
2023-04-15T21:21:42.052Z,5.85
2023-04-15T21:24:08.973Z,5.63
2023-04-15T21:26:38.308Z,6.38
2023-04-15T21:29:05.509Z,5.32
2023-04-15T21:31:33.492Z,5.75
2023-04-15T21:34:00.207Z,5.30
2023-04-15T21:36:27.166Z,6.55
2023-04-15T21:38:53.898Z,6.20
2023-04-15T21:41:20.700Z,6.63
2023-04-15T21:43:47.528Z,6.03
2023-04-15T21:46:23.686Z,7.53
2023-04-15T21:48:53.418Z,6.13
2023-04-15T21:51:20.476Z,7.00
2023-04-15T21:53:47.318Z,6.40
2023-04-15T21:56:14.134Z,6.63
2023-04-15T21:58:41.056Z,7.00
2023-04-15T22:01:07.926Z,6.72
2023-04-15T22:03:35.487Z,7.13
2023-04-15T22:06:05.665Z,7.35
2023-04-15T22:08:38.677Z,6.40
2023-04-15T22:11:26.999Z,7.22
2023-04-15T22:13:54.689Z,6.50
2023-04-15T22:16:21.678Z,6.78
2023-04-15T22:18:48.578Z,6.68
2023-04-15T22:21:15.380Z,6.65
2023-04-15T22:23:42.449Z,6.95
2023-04-15T22:26:09.605Z,7.43
2023-04-15T22:28:36.426Z,7.15
2023-04-15T22:31:03.986Z,7.00
2023-04-15T22:33:30.853Z,7.13
2023-04-15T22:35:57.640Z,6.68
2023-04-15T22:38:24.992Z,7.30
2023-04-15T22:40:54.161Z,7.05
2023-04-15T22:43:21.094Z,6.57
2023-04-15T22:45:51.407Z,6.90
2023-04-15T22:48:19.094Z,7.20
2023-04-15T22:50:46.375Z,7.30
2023-04-15T22:53:13.281Z,7.15
2023-04-15T22:55:40.002Z,6.95
2023-04-15T22:58:06.800Z,6.95
2023-04-15T23:00:33.575Z,7.95
2023-04-15T23:03:00.621Z,7.22
2023-04-15T23:05:27.880Z,7.03
2023-04-15T23:07:54.928Z,7.32
2023-04-15T23:10:21.803Z,7.65
2023-04-15T23:12:48.768Z,7.65
2023-04-15T23:15:15.707Z,7.57
2023-04-15T23:17:42.865Z,7.68
2023-04-15T23:20:10.413Z,7.93
2023-04-15T23:22:37.981Z,8.27
2023-04-15T23:25:06.031Z,7.03
2023-04-15T23:27:32.955Z,7.15
2023-04-15T23:29:59.713Z,8.38
2023-04-15T23:32:27.522Z,7.82
2023-04-15T23:34:54.440Z,8.38
2023-04-15T23:37:21.367Z,7.80
2023-04-15T23:39:48.131Z,8.43
2023-04-15T23:42:14.961Z,7.88
2023-04-15T23:44:41.735Z,8.07
2023-04-15T23:47:08.499Z,8.40
2023-04-15T23:49:36.810Z,8.75
2023-04-15T23:52:03.969Z,8.65
2023-04-15T23:54:30.826Z,8.07
2023-04-15T23:56:57.629Z,8.32
2023-04-15T23:59:24.419Z,8.00
